Time;durP1;ratioP1;P1;durP2;ratioP2;P2;SDS_P1;SDS_P2;PMS_P1;PMS_P2;Temp;Humidity;BMP_temperature;BMP_pressure;BME280_temperature;BME280_humidity;BME280_pressure;Samples;Min_cycle;Max_cycle;Signal;HPM_P1;HPM_P2
2021/11/17 08:15:29;;;;;;;106.77;43.03;;;7.90;99.90;;;;;;5111949;27;20552;-77
2021/11/17 08:17:55;;;;;;;103.20;41.93;;;7.90;99.90;;;;;;5106124;28;20305;-77
2021/11/17 08:20:22;;;;;;;96.10;44.60;;;8.00;99.90;;;;;;5103762;28;20051;-77
2021/11/17 08:22:51;;;;;;;110.97;47.60;;;8.10;99.90;;;;;;5105590;28;20048;-83
2021/11/17 08:25:20;;;;;;;98.20;43.10;;;8.10;99.90;;;;;;5106995;28;20052;-79
2021/11/17 08:27:46;;;;;;;89.07;44.27;;;8.20;99.90;;;;;;5103976;28;20492;-77
2021/11/17 08:30:19;;;;;;;94.97;43.00;;;8.30;99.90;;;;;;5138951;27;20051;-77
2021/11/17 08:32:45;;;;;;;88.50;41.53;;;8.30;99.90;;;;;;5104682;28;20491;-80
2021/11/17 08:35:13;;;;;;;80.90;39.90;;;8.40;99.90;;;;;;5105137;28;20044;-80
2021/11/17 08:37:39;;;;;;;82.40;39.10;;;8.50;99.90;;;;;;5137296;27;20050;-81
2021/11/17 08:40:12;;;;;;;78.53;39.63;;;8.60;99.90;;;;;;5104373;28;20043;-79
2021/11/17 08:42:38;;;;;;;84.47;41.53;;;8.60;99.90;;;;;;5105389;28;20040;-80
2021/11/17 08:45:04;;;;;;;84.40;40.80;;;8.70;99.90;;;;;;5094412;28;20049;-83
2021/11/17 08:47:30;;;;;;;77.60;39.63;;;8.80;99.90;;;;;;5102027;28;20445;-84
2021/11/17 08:49:56;;;;;;;75.57;39.27;;;8.90;99.90;;;;;;5129671;27;20117;-79
2021/11/17 08:52:22;;;;;;;84.47;39.50;;;9.00;99.90;;;;;;5105893;28;20075;-79
2021/11/17 08:54:48;;;;;;;67.97;37.27;;;9.10;99.90;;;;;;5105511;28;20040;-79
2021/11/17 08:57:16;;;;;;;74.20;37.10;;;9.20;99.90;;;;;;5107174;28;20040;-80
2021/11/17 08:59:43;;;;;;;70.93;36.37;;;9.20;99.90;;;;;;5105361;28;20116;-77
2021/11/17 09:02:08;;;;;;;72.07;36.10;;;9.30;99.90;;;;;;5103770;28;20471;-77
2021/11/17 09:04:34;;;;;;;71.17;35.90;;;9.40;99.90;;;;;;5092747;28;20076;-81
2021/11/17 09:06:59;;;;;;;75.27;37.10;;;9.40;99.90;;;;;;5084197;28;20048;-76
2021/11/17 09:09:25;;;;;;;71.93;36.20;;;9.50;99.90;;;;;;5083915;28;20135;-76
2021/11/17 09:11:52;;;;;;;67.57;37.97;;;9.50;99.90;;;;;;5085592;28;20052;-76
2021/11/17 09:14:18;;;;;;;70.37;35.77;;;9.50;99.90;;;;;;5116702;28;20121;-76
2021/11/17 09:16:44;;;;;;;69.10;37.30;;;9.50;99.90;;;;;;5083948;28;20044;-74
2021/11/17 09:19:10;;;;;;;70.00;36.23;;;9.60;99.90;;;;;;5084149;28;20044;-74
2021/11/17 09:21:40;;;;;;;66.93;36.23;;;9.60;99.90;;;;;;5084605;28;20481;-76
2021/11/17 09:24:08;;;;;;;65.83;35.30;;;9.60;99.90;;;;;;5082732;28;20149;-74
2021/11/17 09:26:35;;;;;;;67.93;35.40;;;9.60;99.90;;;;;;5071468;28;20052;-73
2021/11/17 09:29:03;;;;;;;67.97;35.47;;;9.70;99.90;;;;;;5070375;28;20511;-75
2021/11/17 09:31:32;;;;;;;69.23;36.97;;;9.70;99.90;;;;;;5070370;28;20460;-75
2021/11/17 09:33:58;;;;;;;63.83;35.80;;;9.80;99.90;;;;;;5073316;28;20143;-73
2021/11/17 09:36:27;;;;;;;68.20;36.27;;;9.80;99.90;;;;;;5088161;28;20447;-73
2021/11/17 09:38:55;;;;;;;65.57;33.27;;;9.80;99.90;;;;;;5090492;28;20094;-72
2021/11/17 09:41:31;;;;;;;61.77;33.90;;;9.80;99.90;;;;;;5088573;28;20044;-73
2021/11/17 09:44:12;;;;;;;62.90;34.57;;;9.90;99.90;;;;;;5089604;28;20089;-76
2021/11/17 09:46:40;;;;;;;57.50;32.65;;;9.90;99.90;;;;;;5091037;28;20139;-75
2021/11/17 09:49:41;;;;;;;53.00;30.57;;;9.90;99.90;;;;;;5091680;28;20036;-76
2021/11/17 09:52:11;;;;;;;59.80;30.60;;;10.00;99.90;;;;;;5067736;28;20105;-76
2021/11/17 09:55:01;;;;;;;57.67;30.43;;;10.00;99.90;;;;;;5090454;28;20310;-76
2021/11/17 09:57:31;;;;;;;53.17;30.77;;;10.10;99.90;;;;;;5089821;28;20491;-79
2021/11/17 10:00:09;;;;;;;50.50;28.87;;;10.10;99.90;;;;;;5089550;28;20052;-77
2021/11/17 10:02:53;;;;;;;54.60;29.57;;;10.20;99.90;;;;;;5089233;28;20051;-76
2021/11/17 10:05:52;;;;;;;51.40;28.93;;;10.30;99.90;;;;;;5109971;27;20514;-77
2021/11/17 19:07:04;;;;;;;11.10;2.83;;;8.00;99.00;;;;;;5142560;27;20465;-69
2021/11/17 19:09:29;;;;;;;9.17;3.63;;;7.90;99.10;;;;;;5147640;27;20320;-71
2021/11/17 19:11:56;;;;;;;19.33;4.53;;;8.00;99.50;;;;;;5146277;27;20043;-73
2021/11/17 19:14:27;;;;;;;10.93;3.27;;;8.00;99.90;;;;;;5146406;27;20047;-72
2021/11/17 19:16:57;;;;;;;16.08;2.85;;;8.10;99.90;;;;;;5146203;27;20051;-73
2021/11/17 19:19:23;;;;;;;12.10;3.63;;;8.10;99.90;;;;;;5145662;27;20050;-73
2021/11/17 19:21:51;;;;;;;15.53;2.93;;;8.20;99.90;;;;;;5145839;27;20046;-72
2021/11/17 19:24:18;;;;;;;13.53;3.30;;;8.20;99.90;;;;;;5145469;27;20125;-72
2021/11/17 19:26:44;;;;;;;20.43;3.13;;;8.30;99.90;;;;;;5145250;27;20043;-72
2021/11/17 19:29:09;;;;;;;14.47;4.70;;;8.40;99.90;;;;;;5146823;27;20451;-71
2021/11/17 19:31:35;;;;;;;12.90;3.37;;;8.40;99.90;;;;;;5145058;27;20054;-73
2021/11/17 19:34:01;;;;;;;13.80;4.07;;;8.40;99.90;;;;;;5145634;27;20065;-77
2021/11/17 19:36:29;;;;;;;16.80;3.60;;;8.40;99.90;;;;;;5145091;27;20043;-75
2021/11/17 19:38:55;;;;;;;12.20;3.70;;;8.50;99.90;;;;;;5145752;27;20066;-72
2021/11/17 19:41:23;;;;;;;17.30;7.27;;;8.50;99.90;;;;;;5145467;27;20042;-72
2021/11/17 19:43:49;;;;;;;16.87;3.87;;;8.60;99.90;;;;;;5144899;27;20069;-73
2021/11/17 19:46:18;;;;;;;17.17;4.90;;;8.60;99.90;;;;;;5145914;27;20399;-76
2021/11/17 19:48:46;;;;;;;11.70;2.97;;;8.60;99.90;;;;;;5145258;27;20031;-76
2021/11/17 19:51:12;;;;;;;12.03;4.07;;;8.60;99.90;;;;;;5145045;27;20055;-76
2021/11/17 19:53:40;;;;;;;15.53;4.90;;;8.70;99.90;;;;;;5145399;27;20183;-72
2021/11/17 19:56:06;;;;;;;10.73;4.20;;;8.70;99.90;;;;;;5146652;27;20118;-71
2021/11/17 19:58:31;;;;;;;14.13;3.67;;;8.70;99.90;;;;;;5144986;27;20035;-72
2021/11/17 20:00:57;;;;;;;14.87;3.87;;;8.70;99.90;;;;;;5145150;27;20084;-72
2021/11/17 20:03:23;;;;;;;14.47;3.80;;;8.70;99.90;;;;;;5144662;27;20102;-73
2021/11/17 20:05:49;;;;;;;13.90;3.40;;;8.70;99.90;;;;;;5145102;27;20076;-72
2021/11/17 20:08:15;;;;;;;16.43;4.23;;;8.70;99.90;;;;;;5146117;27;20035;-76
2021/11/17 20:10:48;;;;;;;19.83;7.63;;;8.70;99.90;;;;;;5127497;27;20067;-73
2021/11/17 20:13:14;;;;;;;12.50;4.63;;;8.70;99.90;;;;;;5146391;27;20050;-73
2021/11/17 20:15:45;;;;;;;17.67;5.13;;;8.70;99.90;;;;;;5145438;27;20047;-73
2021/11/17 20:18:19;;;;;;;16.60;4.20;;;8.70;99.90;;;;;;5131736;27;20047;-73
2021/11/17 20:20:46;;;;;;;12.93;3.53;;;8.70;99.90;;;;;;5132220;27;20035;-72
2021/11/17 20:23:12;;;;;;;12.13;4.57;;;8.70;99.90;;;;;;5132495;27;20039;-73
2021/11/17 20:25:39;;;;;;;13.43;3.63;;;8.60;99.90;;;;;;5130148;27;20129;-72
2021/11/17 20:28:07;;;;;;;19.67;5.77;;;8.60;99.90;;;;;;5130920;27;20043;-72
2021/11/17 20:30:37;;;;;;;13.43;4.23;;;8.60;99.90;;;;;;5130856;27;20087;-71
2021/11/17 20:33:20;;;;;;;16.97;4.77;;;8.50;99.90;;;;;;5131170;27;20049;-72
2021/11/17 20:35:46;;;;;;;12.27;4.20;;;8.50;99.90;;;;;;5131645;27;20043;-72
2021/11/17 20:38:12;;;;;;;18.17;5.40;;;8.40;99.90;;;;;;5129449;27;20043;-72
